Time;durP1;ratioP1;P1;durP2;ratioP2;P2;SDS_P1;SDS_P2;PMS_P1;PMS_P2;Temp;Humidity;BMP_temperature;BMP_pressure;BME280_temperature;BME280_humidity;BME280_pressure;Samples;Min_cycle;Max_cycle;Signal;HPM_P1;HPM_P2
2022/12/16 00:00:01;;;;;;;63.97;21.70;;;;;;;;;;4979657;28;20050;-71
2022/12/16 00:02:26;;;;;;;65.55;24.05;;;;;;;;;;4981165;28;20061;-71
2022/12/16 00:04:51;;;;;;;64.72;22.23;;;;;;;;;;4981676;28;20042;-70
2022/12/16 00:07:17;;;;;;;59.30;22.17;;;;;;;;;;4980711;28;20057;-71
2022/12/16 00:09:42;;;;;;;63.97;22.55;;;;;;;;;;4980043;28;20057;-72
2022/12/16 00:12:08;;;;;;;65.18;22.23;;;;;;;;;;4981427;28;20046;-70
2022/12/16 00:14:33;;;;;;;67.72;23.27;;;;;;;;;;4981180;28;20069;-71
2022/12/16 00:16:59;;;;;;;72.40;23.98;;;;;;;;;;4981232;28;20510;-70
2022/12/16 00:19:24;;;;;;;82.53;25.38;;;;;;;;;;4979211;28;21759;-71
2022/12/16 00:21:49;;;;;;;64.47;23.17;;;;;;;;;;4981144;28;20054;-70
2022/12/16 00:24:15;;;;;;;74.85;23.00;;;;;;;;;;4981346;28;20089;-70
2022/12/16 00:26:40;;;;;;;62.00;21.70;;;;;;;;;;4981222;28;20042;-70
2022/12/16 00:29:06;;;;;;;66.45;21.05;;;;;;;;;;4980486;28;20113;-70
2022/12/16 00:31:31;;;;;;;62.88;21.13;;;;;;;;;;4979320;28;20053;-70
2022/12/16 00:33:57;;;;;;;60.08;21.27;;;;;;;;;;4981175;28;20054;-71
2022/12/16 00:36:23;;;;;;;65.20;24.10;;;;;;;;;;4980947;28;20149;-70
2022/12/16 00:38:51;;;;;;;55.60;17.85;;;;;;;;;;4980238;28;20161;-71
2022/12/16 00:41:16;;;;;;;43.55;18.25;;;;;;;;;;4979793;28;20050;-72
2022/12/16 00:43:42;;;;;;;47.92;17.90;;;;;;;;;;4981121;28;21309;-71
2022/12/16 00:46:07;;;;;;;40.22;15.85;;;;;;;;;;4980992;28;20064;-71
2022/12/16 00:48:32;;;;;;;43.22;17.40;;;;;;;;;;4981197;28;20470;-70
2022/12/16 00:50:58;;;;;;;51.08;19.20;;;;;;;;;;4980404;28;20042;-71
2022/12/16 00:53:23;;;;;;;38.97;17.88;;;;;;;;;;4979695;28;20065;-70
2022/12/16 00:55:49;;;;;;;41.97;16.70;;;;;;;;;;4980927;28;20145;-71
2022/12/16 00:58:15;;;;;;;41.20;18.10;;;;;;;;;;4981275;28;20054;-70
2022/12/16 01:00:41;;;;;;;42.70;17.08;;;;;;;;;;4979852;28;20078;-70
2022/12/16 01:03:07;;;;;;;44.05;16.75;;;;;;;;;;4980602;28;20130;-71
2022/12/16 01:05:32;;;;;;;40.20;16.60;;;;;;;;;;4979775;28;20054;-69
2022/12/16 01:07:58;;;;;;;48.22;18.45;;;;;;;;;;4980897;28;20590;-70
2022/12/16 01:10:24;;;;;;;37.20;15.55;;;;;;;;;;4979660;28;20108;-69
2022/12/16 01:12:50;;;;;;;39.63;16.67;;;;;;;;;;4979428;28;20042;-71
2022/12/16 01:15:16;;;;;;;41.35;16.45;;;;;;;;;;4978621;28;20119;-73
2022/12/16 01:17:42;;;;;;;40.35;16.25;;;;;;;;;;4978511;28;20847;-76
2022/12/16 01:20:09;;;;;;;41.67;15.57;;;;;;;;;;4977717;28;20108;-72
2022/12/16 01:22:34;;;;;;;39.05;15.45;;;;;;;;;;4979292;28;20080;-74
2022/12/16 01:25:00;;;;;;;40.67;16.67;;;;;;;;;;4980984;28;20054;-73
2022/12/16 01:27:27;;;;;;;41.10;14.75;;;;;;;;;;4978481;28;20085;-70
2022/12/16 01:29:53;;;;;;;40.45;16.15;;;;;;;;;;4980163;28;20129;-73
2022/12/16 01:32:18;;;;;;;36.70;14.95;;;;;;;;;;4979484;28;20158;-72
2022/12/16 01:34:49;;;;;;;38.97;16.00;;;;;;;;;;4980528;28;20054;-70
2022/12/16 01:37:14;;;;;;;35.03;15.63;;;;;;;;;;4980342;28;20055;-75
2022/12/16 01:39:40;;;;;;;35.55;14.43;;;;;;;;;;4979528;28;20065;-67
2022/12/16 01:42:16;;;;;;;33.13;14.60;;;;;;;;;;4983977;28;20050;-70
2022/12/16 01:44:44;;;;;;;30.83;13.55;;;;;;;;;;4983241;28;20413;-67
2022/12/16 01:47:15;;;;;;;34.40;14.18;;;;;;;;;;4983959;28;20064;-69
2022/12/16 01:49:53;;;;;;;28.50;13.77;;;;;;;;;;4982562;28;20526;-71
2022/12/16 01:52:28;;;;;;;28.05;12.40;;;;;;;;;;4984012;28;20054;-69
2022/12/16 01:55:14;;;;;;;29.48;13.00;;;;;;;;;;4982945;28;20046;-71
2022/12/16 01:57:45;;;;;;;27.88;12.20;;;;;;;;;;4983102;28;20060;-69
2022/12/16 02:00:12;;;;;;;30.17;12.95;;;;;;;;;;4982972;28;20058;-74
2022/12/16 02:02:43;;;;;;;27.30;11.68;;;;;;;;;;4982377;28;20042;-72
2022/12/16 02:05:22;;;;;;;30.20;12.45;;;;;;;;;;4983094;28;20046;-73
2022/12/16 02:08:03;;;;;;;27.92;12.45;;;;;;;;;;4997541;28;20411;-67
2022/12/16 02:10:40;;;;;;;25.47;12.47;;;;;;;;;;4983097;28;20046;-67
2022/12/16 02:13:18;;;;;;;29.63;12.18;;;;;;;;;;4983890;28;20289;-65
2022/12/16 02:16:04;;;;;;;25.75;11.75;;;;;;;;;;4976375;28;20053;-68
2022/12/16 02:18:37;;;;;;;25.50;11.52;;;;;;;;;;4982150;28;20644;-68
2022/12/16 02:21:09;;;;;;;22.25;10.82;;;;;;;;;;4982618;28;20078;-68
2022/12/16 02:24:08;;;;;;;23.80;11.85;;;;;;;;;;4982810;28;20058;-69
2022/12/16 02:26:57;;;;;;;23.33;11.15;;;;;;;;;;4983513;28;20061;-66
2022/12/16 02:29:52;;;;;;;21.63;10.68;;;;;;;;;;4980865;28;20050;-67
2022/12/16 02:32:48;;;;;;;23.55;11.25;;;;;;;;;;4983142;28;20047;-67
2022/12/16 02:35:38;;;;;;;25.02;11.38;;;;;;;;;;4983282;28;20093;-67
2022/12/16 02:38:18;;;;;;;23.75;11.20;;;;;;;;;;4980528;28;20066;-68
2022/12/16 02:40:50;;;;;;;22.35;10.95;;;;;;;;;;4981784;28;20165;-68
2022/12/16 02:43:49;;;;;;;23.67;10.57;;;;;;;;;;4983332;28;20850;-67
2022/12/16 02:46:16;;;;;;;23.73;11.38;;;;;;;;;;4980072;28;20491;-67
2022/12/16 02:48:41;;;;;;;23.52;11.02;;;;;;;;;;4982502;28;20038;-67
2022/12/16 02:51:07;;;;;;;25.00;12.63;;;;;;;;;;4979798;28;20115;-67
2022/12/16 02:53:37;;;;;;;24.25;11.38;;;;;;;;;;4981310;28;20133;-67
2022/12/16 02:56:28;;;;;;;22.30;11.10;;;;;;;;;;4981099;28;20050;-66
2022/12/16 02:59:00;;;;;;;23.52;11.00;;;;;;;;;;4982576;28;20070;-66
2022/12/16 03:01:44;;;;;;;25.00;11.40;;;;;;;;;;4981267;28;20124;-67
2022/12/16 03:04:25;;;;;;;20.10;10.52;;;;;;;;;;4982375;28;20554;-69
2022/12/16 03:06:53;;;;;;;21.65;10.75;;;;;;;;;;4982900;28;20650;-69
2022/12/16 03:09:27;;;;;;;22.90;11.75;;;;;;;;;;4981113;28;20046;-69
2022/12/16 03:11:55;;;;;;;22.92;11.43;;;;;;;;;;4981831;28;20049;-68
2022/12/16 03:14:23;;;;;;;19.15;11.18;;;;;;;;;;4982247;28;20046;-69
2022/12/16 03:16:50;;;;;;;22.55;11.38;;;;;;;;;;4982130;28;20046;-70
2022/12/16 03:19:15;;;;;;;21.98;11.40;;;;;;;;;;4981590;28;20523;-67
2022/12/16 03:21:48;;;;;;;22.25;12.38;;;;;;;;;;4981538;28;20088;-67
2022/12/16 03:24:14;;;;;;;24.08;11.82;;;;;;;;;;4981456;28;20124;-67
2022/12/16 03:26:50;;;;;;;21.65;10.57;;;;;;;;;;4981976;28;20343;-67
2022/12/16 03:29:26;;;;;;;24.45;12.38;;;;;;;;;;4981207;28;20050;-69
2022/12/16 03:32:08;;;;;;;22.38;11.05;;;;;;;;;;4979585;28;20084;-67
2022/12/16 03:34:46;;;;;;;24.33;12.20;;;;;;;;;;4980793;28;20050;-68
2022/12/16 03:37:13;;;;;;;25.13;12.25;;;;;;;;;;4982305;28;20057;-68
2022/12/16 03:39:46;;;;;;;22.77;10.93;;;;;;;;;;4980354;28;20093;-67
2022/12/16 03:42:14;;;;;;;19.60;11.43;;;;;;;;;;4982188;28;20507;-66
2022/12/16 03:44:41;;;;;;;23.80;12.63;;;;;;;;;;4980936;28;20571;-65
2022/12/16 03:47:07;;;;;;;27.85;12.90;;;;;;;;;;4981724;28;20042;-67
2022/12/16 03:49:32;;;;;;;24.60;13.25;;;;;;;;;;4980299;28;20526;-68
2022/12/16 03:51:58;;;;;;;21.83;12.18;;;;;;;;;;4981521;28;20109;-67
2022/12/16 03:54:24;;;;;;;25.17;12.77;;;;;;;;;;4981695;28;20426;-67
2022/12/16 03:56:50;;;;;;;21.17;12.15;;;;;;;;;;4980988;28;20092;-67
2022/12/16 03:59:16;;;;;;;25.20;13.07;;;;;;;;;;4980884;28;21128;-66
2022/12/16 04:01:42;;;;;;;23.88;12.80;;;;;;;;;;4980741;28;20092;-67
2022/12/16 04:04:08;;;;;;;23.70;12.55;;;;;;;;;;4980901;28;20050;-67
2022/12/16 04:06:34;;;;;;;22.55;12.20;;;;;;;;;;4980719;28;20042;-66
2022/12/16 04:08:59;;;;;;;23.30;13.43;;;;;;;;;;4981280;28;20057;-67
2022/12/16 04:25:30;;;;;;;20.85;12.35;;;;;;;;;;4919473;28;20060;-67
2022/12/16 04:27:57;;;;;;;22.70;13.70;;;;;;;;;;4957597;28;20058;-68
2022/12/16 04:30:23;;;;;;;24.88;14.27;;;;;;;;;;4979449;28;20085;-67
